Time;durP1;ratioP1;P1;durP2;ratioP2;P2;SDS_P1;SDS_P2;PMS_P1;PMS_P2;Temp;Humidity;BMP_temperature;BMP_pressure;BME280_temperature;BME280_humidity;BME280_pressure;Samples;Min_cycle;Max_cycle;Signal;HPM_P1;HPM_P2
2022/10/15 00:02:13;;;;;;;51.40;27.13;;;12.60;99.90;;;;;;6067256;23;20057;-88
2022/10/15 00:04:39;;;;;;;44.00;25.40;;;12.60;99.90;;;;;;6044865;23;20021;-87
2022/10/15 00:07:05;;;;;;;44.58;25.20;;;12.60;99.90;;;;;;6045777;23;20121;-88
2022/10/15 00:09:30;;;;;;;45.25;26.70;;;12.60;99.90;;;;;;6045457;23;20014;-87
2022/10/15 00:11:56;;;;;;;46.28;26.98;;;12.60;99.90;;;;;;6044571;23;20037;-88
2022/10/15 00:14:22;;;;;;;47.22;27.10;;;12.60;99.90;;;;;;6069037;23;20580;-88
2022/10/15 00:16:48;;;;;;;53.97;27.27;;;12.60;99.90;;;;;;6046694;23;20018;-88
2022/10/15 00:19:14;;;;;;;47.40;27.10;;;12.60;99.90;;;;;;6070205;23;20089;-88
2022/10/15 00:21:39;;;;;;;48.63;28.95;;;12.60;99.90;;;;;;6069712;23;20018;-87
2022/10/15 00:24:06;;;;;;;50.35;29.88;;;12.60;99.90;;;;;;6065468;23;20014;-87
2022/10/15 00:26:31;;;;;;;53.10;29.75;;;12.60;99.90;;;;;;6044278;23;20428;-88
2022/10/15 00:29:01;;;;;;;45.97;27.70;;;12.60;99.90;;;;;;6044436;23;20022;-88
2022/10/15 00:31:29;;;;;;;47.22;28.65;;;12.50;99.90;;;;;;6041760;23;20018;-88
2022/10/15 00:33:56;;;;;;;49.85;29.58;;;12.50;99.90;;;;;;6043239;23;20022;-88
2022/10/15 00:36:26;;;;;;;50.40;28.67;;;12.50;99.90;;;;;;6042174;23;20369;-88
2022/10/15 00:38:52;;;;;;;47.33;28.80;;;12.50;99.90;;;;;;6043635;23;20026;-88
2022/10/15 00:41:23;;;;;;;49.45;29.10;;;12.50;99.90;;;;;;6068246;23;20022;-88
2022/10/15 00:43:52;;;;;;;48.70;30.05;;;12.50;99.90;;;;;;6090796;23;20022;-88
2022/10/15 00:46:33;;;;;;;49.22;29.88;;;12.70;99.90;;;;;;6065597;23;20528;-88
2022/10/15 00:49:23;;;;;;;45.75;29.38;;;12.50;99.90;;;;;;6067508;23;20046;-88
2022/10/15 00:51:59;;;;;;;48.70;30.38;;;12.50;99.90;;;;;;6044526;23;20013;-88
2022/10/15 00:54:30;;;;;;;47.88;29.48;;;12.50;99.90;;;;;;6041127;23;20050;-88
2022/10/15 00:56:56;;;;;;;47.70;29.13;;;12.50;99.90;;;;;;6065856;23;20097;-88
2022/10/15 00:59:24;;;;;;;49.10;29.38;;;12.50;99.90;;;;;;6043920;23;20046;-88
2022/10/15 01:01:51;;;;;;;53.30;30.80;;;12.90;99.90;;;;;;6068601;23;20037;-88
2022/10/15 01:04:17;;;;;;;52.28;31.27;;;12.50;99.90;;;;;;6042166;23;20014;-88
2022/10/15 01:06:44;;;;;;;50.85;31.88;;;12.50;99.90;;;;;;6043741;23;20351;-88
2022/10/15 01:09:11;;;;;;;47.72;29.92;;;13.60;99.90;;;;;;6041081;23;20373;-88
2022/10/15 01:11:42;;;;;;;49.63;29.75;;;12.50;99.90;;;;;;6067051;23;20010;-88
2022/10/15 01:14:46;;;;;;;51.20;32.15;;;12.50;99.90;;;;;;6043737;23;20017;-88
2022/10/15 01:17:36;;;;;;;53.22;31.42;;;12.50;99.90;;;;;;6067779;23;20208;-88
2022/10/15 01:20:01;;;;;;;51.78;30.05;;;12.50;99.90;;;;;;6068291;23;20014;-88
2022/10/15 01:22:49;;;;;;;56.67;31.20;;;12.50;99.90;;;;;;6068121;23;20503;-88
2022/10/15 01:25:27;;;;;;;48.33;30.00;;;12.50;99.90;;;;;;6066966;23;20015;-88
2022/10/15 01:27:57;;;;;;;49.72;30.48;;;12.50;99.90;;;;;;6066546;23;20044;-88
2022/10/15 01:30:29;;;;;;;44.63;28.40;;;12.50;99.90;;;;;;6043152;23;20021;-88
2022/10/15 01:33:13;;;;;;;52.40;30.38;;;12.50;99.90;;;;;;6067860;23;20014;-88
2022/10/15 01:35:49;;;;;;;51.92;30.77;;;12.50;99.90;;;;;;6067470;23;20014;-88
2022/10/15 01:38:26;;;;;;;49.13;29.73;;;12.50;99.90;;;;;;6065237;23;20384;-88
2022/10/15 01:41:11;;;;;;;51.03;30.58;;;12.50;99.90;;;;;;6065604;23;20046;-88
2022/10/15 01:43:58;;;;;;;47.05;28.73;;;12.50;99.90;;;;;;6044187;23;20029;-88
2022/10/15 01:46:31;;;;;;;47.78;29.08;;;12.50;99.90;;;;;;6066510;23;20258;-87
2022/10/15 01:48:58;;;;;;;45.42;28.55;;;12.50;99.90;;;;;;6043875;23;20018;-88
2022/10/15 01:51:25;;;;;;;48.92;30.00;;;12.70;99.90;;;;;;6043946;23;20068;-88
2022/10/15 01:53:52;;;;;;;48.60;29.92;;;12.50;99.90;;;;;;6067350;23;20058;-88
2022/10/15 01:56:21;;;;;;;46.40;28.15;;;12.50;99.90;;;;;;6041797;23;20389;-88
2022/10/15 01:58:51;;;;;;;48.28;28.88;;;12.50;99.90;;;;;;6066771;23;20018;-88
2022/10/15 02:01:16;;;;;;;48.70;30.38;;;12.50;99.90;;;;;;6067590;23;20018;-88
2022/10/15 02:03:51;;;;;;;48.35;29.02;;;12.40;99.90;;;;;;6067703;23;20018;-88
2022/10/15 02:06:35;;;;;;;43.95;28.40;;;12.50;99.90;;;;;;6042401;23;20341;-88
2022/10/15 02:09:26;;;;;;;57.17;30.83;;;12.50;99.90;;;;;;6042983;23;20046;-88
2022/10/15 02:11:54;;;;;;;51.13;29.45;;;12.50;99.90;;;;;;6043615;23;20014;-88
2022/10/15 02:14:39;;;;;;;52.63;28.95;;;12.50;99.90;;;;;;6065103;23;20014;-88
2022/10/15 02:17:10;;;;;;;52.50;30.00;;;12.50;99.90;;;;;;6066854;23;20041;-88
2022/10/15 02:19:53;;;;;;;45.67;28.90;;;12.50;99.90;;;;;;6043049;23;20018;-88
2022/10/15 02:22:35;;;;;;;47.42;28.70;;;12.50;99.90;;;;;;6041863;23;20014;-88
2022/10/15 02:25:05;;;;;;;48.75;28.85;;;12.40;99.90;;;;;;6043304;23;20353;-88
2022/10/15 02:27:32;;;;;;;48.58;29.13;;;12.40;99.90;;;;;;6066245;23;20021;-88
2022/10/15 02:30:01;;;;;;;45.70;29.15;;;12.40;99.90;;;;;;6042819;23;20010;-88
2022/10/15 02:32:29;;;;;;;47.70;28.38;;;12.50;99.90;;;;;;6067320;23;20385;-88
2022/10/15 02:34:55;;;;;;;50.50;29.02;;;12.50;99.90;;;;;;6066534;23;20139;-88
2022/10/15 02:37:26;;;;;;;46.33;28.77;;;12.40;99.90;;;;;;6041972;23;20017;-88
2022/10/15 02:39:52;;;;;;;48.83;29.50;;;12.40;99.90;;;;;;6043273;23;20313;-88
2022/10/15 02:42:18;;;;;;;43.40;27.88;;;12.40;99.90;;;;;;6043496;23;20025;-88
2022/10/15 02:44:44;;;;;;;44.10;28.52;;;12.40;99.90;;;;;;6043056;23;20073;-88
2022/10/15 02:47:10;;;;;;;43.90;27.60;;;12.40;99.90;;;;;;6042586;23;20011;-88
2022/10/15 02:49:36;;;;;;;45.15;27.80;;;12.40;99.90;;;;;;6042247;23;20480;-87
2022/10/15 02:52:02;;;;;;;50.30;29.38;;;12.40;99.90;;;;;;6043829;23;20021;-88
2022/10/15 02:54:28;;;;;;;43.45;27.90;;;12.40;99.90;;;;;;6067143;23;20065;-88
2022/10/15 02:56:54;;;;;;;42.38;27.42;;;12.40;99.90;;;;;;6042891;23;20010;-88
2022/10/15 02:59:19;;;;;;;45.47;27.77;;;12.50;99.90;;;;;;6041652;23;20097;-88
2022/10/15 03:01:45;;;;;;;46.72;28.98;;;12.40;99.90;;;;;;6041888;23;20178;-88
2022/10/15 03:04:11;;;;;;;44.88;26.90;;;12.40;99.90;;;;;;6043158;23;20021;-88
2022/10/15 03:06:37;;;;;;;40.70;26.83;;;12.50;99.90;;;;;;6043550;23;20010;-88
2022/10/15 03:09:03;;;;;;;46.15;29.13;;;12.40;99.90;;;;;;6064836;23;20126;-88
2022/10/15 03:11:28;;;;;;;46.40;28.50;;;12.40;99.90;;;;;;6042810;23;20466;-87
2022/10/15 03:13:54;;;;;;;44.60;28.48;;;12.40;99.90;;;;;;6042686;23;20049;-87
2022/10/15 03:16:20;;;;;;;43.95;27.70;;;12.40;99.90;;;;;;6042830;23;20519;-88
2022/10/15 03:18:45;;;;;;;43.60;27.63;;;12.40;99.90;;;;;;6066821;23;20018;-88
2022/10/15 03:21:11;;;;;;;45.00;27.48;;;12.40;99.90;;;;;;6042748;23;20170;-88
2022/10/15 03:23:37;;;;;;;45.20;27.23;;;12.40;99.90;;;;;;6043217;23;20018;-88
2022/10/15 03:26:03;;;;;;;46.33;28.67;;;12.40;99.90;;;;;;6017953;23;20463;-88
2022/10/15 03:28:28;;;;;;;43.78;28.35;;;12.40;99.90;;;;;;6040726;23;20121;-88
2022/10/15 03:30:54;;;;;;;45.88;28.42;;;12.40;99.90;;;;;;6067064;23;20432;-88
2022/10/15 03:33:20;;;;;;;49.90;28.63;;;12.40;99.90;;;;;;6042916;23;20010;-89
2022/10/15 03:35:46;;;;;;;42.13;27.38;;;12.40;99.90;;;;;;6040492;23;20365;-88
2022/10/15 03:38:12;;;;;;;43.75;27.17;;;12.40;99.90;;;;;;6043054;23;20042;-88
2022/10/15 03:40:38;;;;;;;45.13;27.77;;;12.40;99.90;;;;;;6041535;23;20019;-88
2022/10/15 03:43:04;;;;;;;44.42;28.05;;;12.40;99.90;;;;;;6066351;23;20520;-88
2022/10/15 03:45:29;;;;;;;45.80;27.95;;;12.40;99.90;;;;;;6042974;23;20018;-88
2022/10/15 03:47:55;;;;;;;45.63;27.52;;;12.40;99.90;;;;;;6066686;23;20025;-88
2022/10/15 03:50:21;;;;;;;40.65;27.23;;;12.40;99.90;;;;;;6042507;23;20010;-88
2022/10/15 03:52:46;;;;;;;41.00;26.60;;;12.40;99.90;;;;;;6042182;23;20010;-88
2022/10/15 03:55:12;;;;;;;42.17;26.05;;;12.30;99.90;;;;;;6042482;23;20010;-88
2022/10/15 03:57:38;;;;;;;41.92;25.55;;;12.30;99.90;;;;;;6066754;23;20018;-88
2022/10/15 04:00:06;;;;;;;46.10;27.55;;;12.40;99.90;;;;;;6042236;23;20089;-88
2022/10/15 04:02:32;;;;;;;44.58;26.73;;;12.40;99.90;;;;;;6041134;23;20056;-88
2022/10/15 04:04:58;;;;;;;43.70;26.60;;;12.40;99.90;;;;;;6068567;23;20038;-88
2022/10/15 04:07:24;;;;;;;41.72;27.10;;;12.40;99.90;;;;;;6068481;23;20018;-88
2022/10/15 04:09:50;;;;;;;38.03;25.23;;;12.40;99.90;;;;;;6044733;23;20007;-89
2022/10/15 04:12:15;;;;;;;42.35;26.88;;;12.30;99.90;;;;;;6017707;23;20014;-88
2022/10/15 04:14:41;;;;;;;43.90;25.48;;;12.30;99.90;;;;;;6068458;23;20007;-89
2022/10/15 04:17:07;;;;;;;44.70;27.40;;;12.30;99.90;;;;;;6044977;23;20011;-89
2022/10/15 04:19:33;;;;;;;42.28;26.40;;;12.30;99.90;;;;;;6067803;23;20018;-87
2022/10/15 04:21:59;;;;;;;43.80;26.27;;;12.40;99.90;;;;;;6043877;23;20014;-87
2022/10/15 04:24:25;;;;;;;40.25;25.67;;;12.30;99.90;;;;;;6043514;23;20019;-88
2022/10/15 04:26:50;;;;;;;43.45;26.50;;;12.30;99.90;;;;;;6068665;23;20011;-88
2022/10/15 04:29:16;;;;;;;46.45;27.38;;;12.30;99.90;;;;;;6068142;23;20050;-87
2022/10/15 04:31:42;;;;;;;46.03;27.88;;;12.30;99.90;;;;;;6044130;23;20022;-87
2022/10/15 04:34:08;;;;;;;45.40;27.95;;;12.30;99.90;;;;;;6067731;23;20010;-88
2022/10/15 04:36:34;;;;;;;40.83;25.92;;;12.30;99.90;;;;;;6043836;23;20016;-87
2022/10/15 04:39:00;;;;;;;48.78;28.67;;;12.30;99.90;;;;;;6067984;23;20038;-88
2022/10/15 04:41:26;;;;;;;42.60;26.45;;;12.30;99.90;;;;;;6043247;23;20357;-88
2022/10/15 04:43:52;;;;;;;43.72;25.88;;;12.30;99.90;;;;;;6043691;23;20026;-88
2022/10/15 04:46:18;;;;;;;40.72;26.48;;;12.30;99.90;;;;;;6043350;23;20343;-88
2022/10/15 04:48:44;;;;;;;41.85;25.70;;;12.30;99.90;;;;;;6044470;23;20050;-87
2022/10/15 04:51:18;;;;;;;42.45;27.05;;;12.30;99.90;;;;;;6068504;23;20014;-87
2022/10/15 04:53:44;;;;;;;40.45;25.63;;;12.20;99.90;;;;;;6067121;23;20069;-88
2022/10/15 04:56:14;;;;;;;44.60;26.27;;;12.20;99.90;;;;;;6066786;23;20014;-87
2022/10/15 04:58:41;;;;;;;44.13;26.73;;;12.20;99.90;;;;;;6044063;23;20015;-87
2022/10/15 05:01:12;;;;;;;41.55;26.75;;;12.20;99.90;;;;;;6042852;23;20019;-87
2022/10/15 05:03:39;;;;;;;47.50;28.02;;;12.20;99.90;;;;;;6043375;23;20065;-87
2022/10/15 05:06:10;;;;;;;42.00;26.95;;;12.40;99.90;;;;;;6043232;23;20014;-87
2022/10/15 05:08:37;;;;;;;41.70;25.73;;;12.20;99.90;;;;;;6044222;23;20018;-88
2022/10/15 05:11:07;;;;;;;42.83;26.90;;;12.20;99.90;;;;;;6067864;23;20154;-88
2022/10/15 05:13:33;;;;;;;40.03;26.02;;;12.20;99.90;;;;;;6066895;23;20011;-87
2022/10/15 05:16:16;;;;;;;41.42;26.02;;;12.20;99.90;;;;;;6041967;23;20006;-88
2022/10/15 05:18:43;;;;;;;42.75;26.05;;;12.20;99.90;;;;;;6044101;23;20022;-88
2022/10/15 05:21:10;;;;;;;49.88;28.17;;;12.20;99.90;;;;;;6067561;23;20460;-88
2022/10/15 05:23:37;;;;;;;47.92;28.15;;;12.20;99.90;;;;;;6043320;23;20445;-88
2022/10/15 05:26:06;;;;;;;47.60;27.65;;;12.20;99.90;;;;;;6043491;23;20015;-87
2022/10/15 05:28:32;;;;;;;45.03;28.35;;;12.10;99.90;;;;;;6042002;23;20022;-87
2022/10/15 05:31:13;;;;;;;47.83;28.40;;;12.20;99.90;;;;;;6067425;23;20402;-88
2022/10/15 05:33:39;;;;;;;46.70;28.27;;;12.20;99.90;;;;;;6041572;23;20021;-88
2022/10/15 05:36:22;;;;;;;51.13;29.30;;;12.20;99.90;;;;;;6043433;23;20053;-88
2022/10/15 05:38:50;;;;;;;47.80;27.85;;;12.20;99.90;;;;;;6055194;23;20532;-88
2022/10/15 05:41:17;;;;;;;48.85;29.02;;;12.20;99.90;;;;;;6067540;23;20028;-88
2022/10/15 05:43:46;;;;;;;48.63;29.13;;;12.10;99.90;;;;;;6066823;23;20511;-88
2022/10/15 05:46:12;;;;;;;44.88;28.50;;;12.10;99.90;;;;;;6066094;23;20046;-88
2022/10/15 05:48:37;;;;;;;50.83;30.92;;;12.10;99.90;;;;;;6042417;23;20097;-88
2022/10/15 05:51:05;;;;;;;53.90;30.55;;;12.10;99.90;;;;;;6067595;23;20534;-88
2022/10/15 05:53:31;;;;;;;50.47;30.17;;;12.10;99.90;;;;;;6063703;23;20022;-88
2022/10/15 05:56:00;;;;;;;50.88;30.27;;;12.10;99.90;;;;;;6019219;23;20014;-88
2022/10/15 05:58:27;;;;;;;52.72;31.65;;;12.10;99.90;;;;;;6066626;23;20518;-88
2022/10/15 06:00:57;;;;;;;51.70;31.15;;;12.10;99.90;;;;;;6064458;23;20026;-88
2022/10/15 06:03:23;;;;;;;58.20;32.42;;;12.80;99.90;;;;;;6065630;23;20108;-87
2022/10/15 06:05:49;;;;;;;55.22;32.72;;;12.10;99.90;;;;;;6065942;23;20018;-87
2022/10/15 06:08:15;;;;;;;53.80;31.35;;;12.20;99.90;;;;;;6039484;23;20022;-88
2022/10/15 06:10:41;;;;;;;56.33;33.40;;;12.20;99.90;;;;;;6065399;23;20014;-87
2022/10/15 06:13:07;;;;;;;56.97;32.20;;;12.10;99.90;;;;;;6065771;23;20017;-87
2022/10/15 06:15:33;;;;;;;54.05;31.92;;;12.20;99.90;;;;;;6042474;23;20010;-88
2022/10/15 06:17:59;;;;;;;60.75;32.47;;;12.20;99.90;;;;;;6066268;23;20014;-88
2022/10/15 06:20:25;;;;;;;54.17;32.78;;;12.10;99.90;;;;;;6067275;23;20022;-88
2022/10/15 06:22:59;;;;;;;57.85;32.80;;;12.10;99.90;;;;;;6067770;23;20056;-88
2022/10/15 06:25:25;;;;;;;55.78;31.90;;;12.10;99.90;;;;;;6067028;23;20269;-87
2022/10/15 06:27:51;;;;;;;67.75;33.65;;;12.10;99.90;;;;;;6042922;23;20018;-88
2022/10/15 06:30:17;;;;;;;58.47;32.47;;;12.10;99.90;;;;;;6066176;23;20475;-87
2022/10/15 06:32:50;;;;;;;61.35;33.55;;;12.20;99.90;;;;;;6043365;23;20093;-88
2022/10/15 06:35:17;;;;;;;55.63;32.85;;;12.20;99.90;;;;;;6042824;23;20010;-87
2022/10/15 06:37:43;;;;;;;59.42;34.05;;;12.20;99.90;;;;;;6042566;23;20037;-87
2022/10/15 06:40:10;;;;;;;53.55;32.35;;;12.20;99.90;;;;;;6040359;23;20010;-87
2022/10/15 06:42:36;;;;;;;61.50;33.63;;;12.20;99.90;;;;;;6041996;23;20073;-87
2022/10/15 06:45:02;;;;;;;55.33;32.20;;;12.20;99.90;;;;;;6042978;23;20018;-87
2022/10/15 06:47:28;;;;;;;59.25;33.20;;;12.20;99.90;;;;;;6066737;23;20041;-87
2022/10/15 06:49:54;;;;;;;55.95;32.83;;;12.20;99.90;;;;;;6041623;23;20441;-88
2022/10/15 06:52:19;;;;;;;56.83;32.47;;;12.20;99.90;;;;;;6041422;23;20460;-88
2022/10/15 06:54:45;;;;;;;61.22;33.78;;;12.20;99.90;;;;;;6041161;23;20015;-87
2022/10/15 06:57:11;;;;;;;58.38;34.13;;;12.20;99.90;;;;;;6066048;23;20018;-87
2022/10/15 06:59:37;;;;;;;61.33;33.65;;;12.20;99.90;;;;;;6043038;23;20011;-88
2022/10/15 07:02:03;;;;;;;57.17;33.83;;;12.20;99.90;;;;;;6042986;23;20452;-87
2022/10/15 07:04:28;;;;;;;60.97;35.45;;;12.20;99.90;;;;;;6064577;23;20011;-87
2022/10/15 07:06:54;;;;;;;57.95;33.50;;;12.30;99.90;;;;;;6042928;23;20527;-88
2022/10/15 07:09:20;;;;;;;56.75;33.95;;;12.30;99.90;;;;;;6067362;23;20460;-88
2022/10/15 07:11:46;;;;;;;62.42;35.08;;;12.30;99.90;;;;;;6042094;23;20182;-88
2022/10/15 07:14:11;;;;;;;58.78;34.17;;;12.30;99.90;;;;;;6067550;23;20014;-87
2022/10/15 07:16:38;;;;;;;59.13;33.90;;;12.40;99.90;;;;;;6042797;23;20010;-86
2022/10/15 07:19:04;;;;;;;56.63;34.10;;;12.40;99.90;;;;;;6066571;23;20019;-86
2022/10/15 07:21:30;;;;;;;52.55;33.38;;;12.40;99.90;;;;;;6067415;23;20062;-87
2022/10/15 07:23:56;;;;;;;61.50;35.10;;;12.40;99.90;;;;;;6067120;23;20448;-88
2022/10/15 07:26:22;;;;;;;57.75;34.05;;;12.50;99.90;;;;;;6042167;23;20487;-88
2022/10/15 07:28:47;;;;;;;57.90;33.47;;;12.50;99.90;;;;;;6066948;23;20460;-88
2022/10/15 07:31:13;;;;;;;56.47;34.15;;;12.50;99.90;;;;;;6042454;23;20011;-88
2022/10/15 07:33:41;;;;;;;54.70;33.35;;;12.50;99.90;;;;;;6040299;23;20049;-87
2022/10/15 07:36:10;;;;;;;60.13;34.50;;;12.60;99.90;;;;;;6042052;23;20010;-88
2022/10/15 07:38:36;;;;;;;54.92;33.13;;;12.70;99.90;;;;;;6042520;23;20022;-88
2022/10/15 07:41:03;;;;;;;55.55;33.20;;;12.70;99.90;;;;;;6066008;23;20025;-87
2022/10/15 07:43:29;;;;;;;55.75;33.58;;;12.80;99.90;;;;;;6043868;23;20028;-88
2022/10/15 07:45:55;;;;;;;57.88;34.40;;;12.80;99.90;;;;;;6044583;23;20014;-88
2022/10/15 07:48:21;;;;;;;55.05;34.40;;;12.90;99.90;;;;;;6042780;23;20100;-87
2022/10/15 07:51:05;;;;;;;60.30;34.30;;;12.90;99.90;;;;;;6042203;23;20052;-88
2022/10/15 07:53:31;;;;;;;52.42;33.25;;;12.90;99.90;;;;;;6068627;23;20228;-87
2022/10/15 07:56:02;;;;;;;54.85;33.05;;;12.90;99.90;;;;;;6044423;23;20021;-87
2022/10/15 07:58:29;;;;;;;56.38;33.65;;;13.00;99.90;;;;;;6041906;23;20014;-87
2022/10/15 08:00:59;;;;;;;52.90;33.40;;;13.00;99.90;;;;;;6044016;23;20019;-87
2022/10/15 08:03:25;;;;;;;50.47;32.42;;;13.00;99.90;;;;;;6064821;23;20073;-87
2022/10/15 08:05:52;;;;;;;54.28;30.40;;;13.20;99.90;;;;;;6042793;23;20018;-87
2022/10/15 08:08:18;;;;;;;52.45;31.65;;;13.00;99.90;;;;;;6041921;23;20472;-88
2022/10/15 08:10:45;;;;;;;53.15;32.55;;;13.10;99.90;;;;;;6042378;23;20445;-86
2022/10/15 08:13:11;;;;;;;53.33;31.83;;;13.10;99.90;;;;;;6064730;23;20018;-85
2022/10/15 08:15:40;;;;;;;52.22;31.77;;;13.20;99.90;;;;;;6042792;23;20025;-87
2022/10/15 08:18:08;;;;;;;52.55;32.63;;;13.30;99.90;;;;;;6044017;23;20448;-86
2022/10/15 08:20:35;;;;;;;47.28;30.17;;;13.30;99.90;;;;;;6044851;23;20019;-86
2022/10/15 08:23:01;;;;;;;43.65;29.35;;;13.40;99.90;;;;;;6044480;23;20015;-87
2022/10/15 08:25:27;;;;;;;47.35;30.70;;;13.40;99.90;;;;;;6043660;23;20381;-86
2022/10/15 08:27:53;;;;;;;52.05;31.00;;;13.50;99.90;;;;;;6020611;23;20106;-86
2022/10/15 08:30:19;;;;;;;48.92;31.08;;;13.50;99.90;;;;;;6044065;23;20046;-86
2022/10/15 08:32:45;;;;;;;45.17;29.17;;;13.60;99.90;;;;;;6044757;23;20022;-86
2022/10/15 08:35:11;;;;;;;45.03;28.50;;;13.70;99.90;;;;;;6043744;23;20021;-86
2022/10/15 08:37:36;;;;;;;48.42;28.52;;;13.80;99.90;;;;;;6044733;23;20086;-87
2022/10/15 08:40:03;;;;;;;43.15;28.98;;;13.90;99.90;;;;;;6043404;23;20014;-87
2022/10/15 08:42:40;;;;;;;42.70;28.73;;;14.00;99.90;;;;;;6043946;23;20018;-86
2022/10/15 08:45:12;;;;;;;41.40;26.80;;;14.10;99.90;;;;;;6043848;23;20014;-87
2022/10/15 08:48:28;;;;;;;43.08;27.83;;;14.00;99.90;;;;;;6044005;23;20098;-86
2022/10/15 08:51:11;;;;;;;40.47;27.23;;;14.10;99.90;;;;;;5902753;24;20028;-87
2022/10/15 08:53:44;;;;;;;41.03;27.52;;;14.10;99.90;;;;;;5925518;24;20027;-86
2022/10/15 08:56:21;;;;;;;40.88;27.75;;;14.10;99.90;;;;;;6010290;23;20340;-87
2022/10/15 08:59:07;;;;;;;43.80;27.30;;;14.10;99.90;;;;;;6043947;23;20048;-88
2022/10/15 09:02:01;;;;;;;45.70;28.73;;;14.10;99.90;;;;;;6068004;23;20014;-87
2022/10/15 09:05:00;;;;;;;40.47;28.48;;;14.10;99.90;;;;;;6043393;23;20018;-87
2022/10/15 09:08:02;;;;;;;44.75;29.15;;;14.10;99.90;;;;;;6028358;23;20023;-87
2022/10/15 09:10:36;;;;;;;45.85;30.08;;;14.10;99.90;;;;;;6044604;23;20063;-87
2022/10/15 09:13:15;;;;;;;41.83;29.73;;;14.20;99.90;;;;;;6043714;23;20010;-87
2022/10/15 09:15:56;;;;;;;43.35;30.42;;;14.20;99.90;;;;;;6068014;23;20038;-86
2022/10/15 09:18:24;;;;;;;40.53;29.13;;;15.20;99.90;;;;;;6067097;23;20468;-87
2022/10/15 09:20:51;;;;;;;41.35;29.42;;;14.10;99.90;;;;;;6068362;23;20050;-86
2022/10/15 09:23:22;;;;;;;43.45;29.25;;;14.10;99.90;;;;;;6067807;23;20348;-87
2022/10/15 09:26:10;;;;;;;41.80;27.75;;;14.20;99.90;;;;;;6067659;23;20049;-86
2022/10/15 09:28:45;;;;;;;36.88;26.02;;;14.10;99.90;;;;;;6066794;23;20038;-87
2022/10/15 09:31:16;;;;;;;39.60;27.20;;;14.10;99.90;;;;;;6068201;23;20445;-86
2022/10/15 09:33:45;;;;;;;39.33;27.05;;;14.30;99.90;;;;;;6067736;23;20014;-87
2022/10/15 09:36:34;;;;;;;41.55;27.70;;;14.10;99.90;;;;;;6067200;23;20033;-87
2022/10/15 09:39:39;;;;;;;38.00;25.50;;;14.10;99.90;;;;;;6043191;23;20014;-86
2022/10/15 09:42:23;;;;;;;37.72;25.55;;;14.10;99.90;;;;;;6043792;23;20407;-86
2022/10/15 09:44:50;;;;;;;36.90;25.23;;;14.10;99.90;;;;;;6066998;23;20570;-85
2022/10/15 09:47:29;;;;;;;37.45;24.95;;;14.10;99.90;;;;;;6043682;23;20014;-86
2022/10/15 09:49:55;;;;;;;40.85;27.02;;;14.10;99.90;;;;;;6038691;23;20019;-86
2022/10/15 09:52:28;;;;;;;34.47;25.63;;;14.00;99.90;;;;;;6038452;23;20017;-86
2022/10/15 09:55:08;;;;;;;40.25;27.27;;;14.00;99.90;;;;;;6043558;23;20010;-86
2022/10/15 09:57:36;;;;;;;38.72;25.95;;;14.00;99.90;;;;;;6064342;23;20014;-86
2022/10/15 10:00:08;;;;;;;38.85;26.08;;;14.00;99.90;;;;;;6040028;23;20022;-85
2022/10/15 10:02:33;;;;;;;34.95;23.98;;;14.30;99.90;;;;;;6040871;23;20014;-87
2022/10/15 10:05:28;;;;;;;35.20;24.02;;;14.00;99.90;;;;;;6041604;23;20010;-86
2022/10/15 10:08:18;;;;;;;34.92;23.17;;;13.90;99.90;;;;;;6061036;23;20021;-86
2022/10/15 10:10:52;;;;;;;34.90;22.70;;;14.00;99.90;;;;;;6041874;23;20352;-88
2022/10/15 10:13:28;;;;;;;36.28;22.88;;;13.90;99.90;;;;;;6066358;23;20010;-86
2022/10/15 10:16:01;;;;;;;37.78;23.83;;;14.00;99.90;;;;;;6055436;23;20014;-86
2022/10/15 10:18:27;;;;;;;35.60;23.70;;;13.90;99.90;;;;;;6039649;23;20019;-87
2022/10/15 10:20:58;;;;;;;39.63;25.33;;;13.90;99.90;;;;;;6042856;23;20123;-87
2022/10/15 10:23:38;;;;;;;38.33;24.17;;;13.80;99.90;;;;;;6042892;23;20520;-86
2022/10/15 10:26:09;;;;;;;39.85;23.70;;;13.80;99.90;;;;;;6043471;23;20089;-88
2022/10/15 10:29:07;;;;;;;35.63;22.55;;;13.80;99.90;;;;;;6042929;23;20058;-85
2022/10/15 10:31:41;;;;;;;34.88;20.23;;;13.70;99.90;;;;;;5979301;23;20266;-86
2022/10/15 10:34:16;;;;;;;36.38;21.33;;;13.70;99.90;;;;;;6041756;23;20344;-87
2022/10/15 10:36:42;;;;;;;33.08;21.15;;;13.70;99.90;;;;;;6042916;23;20018;-87
2022/10/15 10:39:13;;;;;;;32.88;19.95;;;13.70;99.90;;;;;;6042954;23;20014;-86
2022/10/15 10:41:53;;;;;;;33.70;20.45;;;13.70;99.90;;;;;;6066595;23;20523;-85
2022/10/15 10:44:28;;;;;;;35.05;20.35;;;13.70;99.90;;;;;;6041141;23;20042;-85
2022/10/15 10:47:15;;;;;;;33.15;19.00;;;13.60;99.90;;;;;;6041876;23;20022;-86
2022/10/15 10:49:42;;;;;;;31.05;19.02;;;13.70;99.90;;;;;;6040697;23;20053;-86
2022/10/15 10:52:29;;;;;;;32.45;19.35;;;13.80;99.90;;;;;;6065883;23;20130;-87
2022/10/15 10:55:12;;;;;;;30.13;18.10;;;13.90;99.90;;;;;;6066402;23;20014;-87
2022/10/15 10:57:47;;;;;;;31.67;17.98;;;14.00;99.90;;;;;;6042234;23;20050;-87
2022/10/15 11:00:19;;;;;;;26.45;16.40;;;14.10;99.90;;;;;;6063645;23;20077;-87
2022/10/15 11:02:45;;;;;;;27.10;16.40;;;14.10;99.90;;;;;;6066799;23;20351;-87
2022/10/15 11:05:11;;;;;;;28.65;16.30;;;14.20;99.90;;;;;;6040500;23;20015;-87
2022/10/15 11:07:54;;;;;;;26.30;16.60;;;14.20;99.90;;;;;;6065511;23;20065;-87
2022/10/15 11:10:22;;;;;;;27.50;17.02;;;14.20;99.90;;;;;;6066180;23;20010;-87
2022/10/15 11:13:02;;;;;;;26.98;16.58;;;14.20;99.90;;;;;;6066913;23;20017;-88
2022/10/15 11:15:57;;;;;;;28.42;17.52;;;14.20;99.90;;;;;;6042378;23;20069;-87
2022/10/15 11:18:34;;;;;;;28.38;16.50;;;14.20;99.90;;;;;;6041505;23;20094;-86
2022/10/15 11:21:15;;;;;;;26.88;16.60;;;14.20;99.90;;;;;;6066185;23;20155;-87
2022/10/15 11:24:05;;;;;;;25.90;16.13;;;14.20;99.90;;;;;;6065373;23;20018;-86
2022/10/15 11:27:08;;;;;;;27.10;17.15;;;14.30;99.90;;;;;;6064828;23;20033;-87
2022/10/15 11:29:51;;;;;;;26.33;16.27;;;14.40;99.90;;;;;;6065020;23;20085;-88
2022/10/15 11:32:38;;;;;;;26.50;15.40;;;14.50;99.90;;;;;;6042685;23;20042;-87
2022/10/15 11:35:40;;;;;;;26.90;16.60;;;14.60;99.90;;;;;;6065827;23;20010;-89
2022/10/15 11:38:28;;;;;;;24.58;16.17;;;14.80;99.90;;;;;;6066726;23;20018;-87
2022/10/15 11:41:32;;;;;;;25.95;16.23;;;14.80;99.90;;;;;;6066779;23;20461;-87
2022/10/15 11:43:57;;;;;;;25.77;15.55;;;14.90;99.90;;;;;;6028994;23;20054;-86
2022/10/15 11:46:41;;;;;;;22.80;15.23;;;14.80;99.90;;;;;;6066055;23;20057;-87
2022/10/15 11:49:20;;;;;;;24.02;14.75;;;14.80;99.90;;;;;;6066551;23;20101;-87
2022/10/15 11:51:59;;;;;;;25.17;14.65;;;14.80;99.90;;;;;;6066339;23;20011;-87
2022/10/15 11:54:35;;;;;;;22.90;13.82;;;14.90;99.90;;;;;;6066083;23;20132;-87
2022/10/15 11:57:03;;;;;;;21.85;13.88;;;14.80;99.90;;;;;;6042769;23;20010;-86
2022/10/15 11:59:29;;;;;;;23.40;13.88;;;14.80;99.90;;;;;;6066644;23;20053;-87
2022/10/15 12:02:01;;;;;;;21.17;12.82;;;14.90;99.90;;;;;;6066875;23;20014;-87
2022/10/15 12:04:37;;;;;;;19.60;12.90;;;14.90;99.90;;;;;;6066657;23;20025;-87
2022/10/15 12:07:05;;;;;;;22.40;13.23;;;15.00;99.90;;;;;;6066021;23;20557;-87
2022/10/15 12:09:39;;;;;;;22.15;13.73;;;15.00;99.90;;;;;;6042186;23;20475;-87
2022/10/15 12:12:24;;;;;;;19.70;12.20;;;15.00;99.90;;;;;;6043184;23;20042;-86
2022/10/15 12:15:07;;;;;;;20.38;13.15;;;15.00;99.90;;;;;;6066456;23;20011;-87
2022/10/15 12:17:39;;;;;;;19.65;12.70;;;15.10;99.90;;;;;;6065942;23;20015;-87
2022/10/15 12:20:13;;;;;;;20.00;12.10;;;15.10;99.90;;;;;;6066577;23;20011;-87
2022/10/15 12:22:51;;;;;;;18.67;12.25;;;15.10;99.90;;;;;;6067829;23;20017;-87
2022/10/15 12:25:49;;;;;;;20.15;12.48;;;15.20;99.90;;;;;;6068229;23;20011;-87
2022/10/15 12:28:22;;;;;;;19.70;13.13;;;15.20;99.90;;;;;;5966346;23;20041;-86
2022/10/15 12:31:01;;;;;;;19.00;12.57;;;15.20;99.90;;;;;;6044387;23;20018;-87
2022/10/15 12:33:49;;;;;;;19.13;12.50;;;15.30;99.90;;;;;;6040560;23;20093;-86
2022/10/15 12:36:27;;;;;;;17.17;11.50;;;15.30;99.90;;;;;;6065578;23;20014;-87
2022/10/15 12:39:22;;;;;;;18.52;11.70;;;15.40;99.90;;;;;;6041671;23;20325;-87
2022/10/15 12:41:49;;;;;;;18.08;12.07;;;15.40;99.90;;;;;;6066687;23;20114;-88
2022/10/15 12:44:26;;;;;;;17.50;12.20;;;15.40;99.90;;;;;;6065455;23;20029;-88
2022/10/15 12:46:52;;;;;;;17.80;11.23;;;15.40;99.90;;;;;;6067637;23;20101;-87
2022/10/15 12:49:30;;;;;;;19.33;11.80;;;15.40;99.90;;;;;;6044310;23;20021;-87
2022/10/15 12:51:58;;;;;;;19.10;12.32;;;15.40;99.90;;;;;;6068171;23;20077;-88